Time;durP1;ratioP1;P1;durP2;ratioP2;P2;SDS_P1;SDS_P2;PMS_P1;PMS_P2;Temp;Humidity;BMP_temperature;BMP_pressure;BME280_temperature;BME280_humidity;BME280_pressure;Samples;Min_cycle;Max_cycle;Signal;HPM_P1;HPM_P2
2023/01/03 00:01:36;;;;;;;12.68;3.33;;;4.10;99.90;;;;;;4920068;29;20050;-85
2023/01/03 00:04:02;;;;;;;6.75;3.03;;;4.00;99.90;;;;;;4906870;29;20036;-85
2023/01/03 00:06:37;;;;;;;9.05;3.75;;;4.00;99.90;;;;;;4916291;29;20114;-85
2023/01/03 00:09:08;;;;;;;7.15;3.30;;;4.00;99.90;;;;;;4918442;29;20040;-85
2023/01/03 00:14:22;;;;;;;10.45;4.22;;;4.00;99.90;;;;;;4928682;29;20043;-85
2023/01/03 00:16:50;;;;;;;9.63;3.78;;;3.90;99.90;;;;;;4913501;29;20040;-85
2023/01/03 00:19:16;;;;;;;10.90;4.38;;;3.90;99.90;;;;;;4907773;29;20043;-85
2023/01/03 00:21:42;;;;;;;11.00;4.63;;;3.90;99.90;;;;;;4924194;29;20040;-85
2023/01/03 00:24:08;;;;;;;11.90;4.70;;;4.30;99.90;;;;;;4925269;29;20175;-85
2023/01/03 00:26:34;;;;;;;13.98;5.13;;;3.90;99.90;;;;;;4925226;29;20054;-85
2023/01/03 00:29:01;;;;;;;11.60;4.95;;;3.80;99.90;;;;;;4925778;29;20072;-85
2023/01/03 00:31:26;;;;;;;12.80;5.60;;;3.80;99.90;;;;;;4921354;29;20047;-85
2023/01/03 00:33:52;;;;;;;12.80;6.57;;;3.80;99.90;;;;;;4918675;29;20036;-84
2023/01/03 00:36:18;;;;;;;13.93;5.57;;;3.70;99.90;;;;;;4910578;29;20043;-84
2023/01/03 00:38:44;;;;;;;12.30;6.22;;;3.80;99.90;;;;;;4932057;29;20044;-85
2023/01/03 00:41:15;;;;;;;10.68;5.70;;;3.70;99.90;;;;;;4904827;29;20103;-84
2023/01/03 00:43:43;;;;;;;8.40;5.95;;;3.70;99.90;;;;;;4922091;29;20043;-85
2023/01/03 00:46:10;;;;;;;7.53;6.57;;;3.60;99.90;;;;;;4899115;29;20031;-85
2023/01/03 00:48:36;;;;;;;14.60;6.80;;;3.60;99.90;;;;;;4933278;29;20505;-85
2023/01/03 00:51:29;;;;;;;10.35;6.30;;;3.90;99.90;;;;;;4922499;29;20059;-84
2023/01/03 00:53:56;;;;;;;10.38;6.47;;;3.60;99.90;;;;;;4906194;29;21070;-84
2023/01/03 00:56:25;;;;;;;14.85;6.00;;;3.60;99.90;;;;;;4919240;29;20043;-85
2023/01/03 00:58:51;;;;;;;11.52;6.43;;;3.60;99.90;;;;;;4904592;29;20075;-85
2023/01/03 01:01:24;;;;;;;10.10;6.68;;;3.50;99.90;;;;;;4909167;29;20423;-84
2023/01/03 01:03:59;;;;;;;14.07;7.10;;;3.50;99.90;;;;;;4921304;29;20043;-85
2023/01/03 01:06:31;;;;;;;14.25;7.00;;;3.60;99.90;;;;;;4909507;29;20036;-84
2023/01/03 01:08:59;;;;;;;13.50;7.35;;;3.50;99.90;;;;;;4921763;29;20031;-85
2023/01/03 01:11:26;;;;;;;13.82;8.38;;;3.50;99.90;;;;;;4906597;29;20032;-85
2023/01/03 01:13:52;;;;;;;12.27;7.10;;;3.50;99.90;;;;;;4921681;29;20036;-84
2023/01/03 01:16:21;;;;;;;22.40;8.45;;;3.50;99.90;;;;;;4905826;29;20074;-84
2023/01/03 01:18:48;;;;;;;15.02;7.50;;;3.50;99.90;;;;;;4919401;29;20368;-85
2023/01/03 01:21:20;;;;;;;15.77;8.70;;;3.50;99.90;;;;;;4918707;29;20043;-85
2023/01/03 01:23:46;;;;;;;14.20;7.75;;;3.50;99.90;;;;;;4923543;29;20042;-84
2023/01/03 01:26:15;;;;;;;11.85;7.85;;;3.50;99.90;;;;;;4914390;29;20039;-84
2023/01/03 01:28:41;;;;;;;12.13;8.30;;;3.50;99.90;;;;;;4934469;29;20174;-85
2023/01/03 01:31:08;;;;;;;14.35;8.55;;;3.50;99.90;;;;;;4904122;29;20047;-85
2023/01/03 01:33:35;;;;;;;18.05;9.02;;;3.50;99.90;;;;;;4920538;29;20050;-84
2023/01/03 01:36:06;;;;;;;15.45;8.77;;;3.50;99.90;;;;;;4920130;29;20047;-84
2023/01/03 01:38:32;;;;;;;16.73;8.98;;;3.40;99.90;;;;;;4918656;29;20403;-84
2023/01/03 01:40:57;;;;;;;16.17;9.00;;;3.40;99.90;;;;;;4921407;29;20047;-85
2023/01/03 01:46:22;;;;;;;19.88;9.70;;;3.30;99.90;;;;;;4919236;29;20499;-84
2023/01/03 01:48:53;;;;;;;12.55;8.98;;;3.30;99.90;;;;;;4907242;29;20040;-84
2023/01/03 01:51:21;;;;;;;16.45;9.55;;;3.30;99.90;;;;;;4915575;29;20043;-85
2023/01/03 01:53:49;;;;;;;14.30;10.10;;;3.30;99.90;;;;;;4907185;29;20063;-84
2023/01/03 01:56:28;;;;;;;14.10;9.27;;;3.30;99.90;;;;;;4920121;29;20059;-84
2023/01/03 01:58:54;;;;;;;17.50;9.60;;;3.20;99.90;;;;;;4908011;29;20044;-84
2023/01/03 02:01:22;;;;;;;15.23;9.45;;;3.20;99.90;;;;;;4906486;29;20078;-85
2023/01/03 02:03:55;;;;;;;18.20;9.68;;;3.20;99.90;;;;;;4918564;29;20044;-84
2023/01/03 02:06:22;;;;;;;14.18;9.23;;;3.20;99.90;;;;;;4917395;29;20036;-84
2023/01/03 02:08:48;;;;;;;13.82;10.05;;;3.10;99.90;;;;;;4903207;29;20048;-84
2023/01/03 02:11:28;;;;;;;16.27;10.50;;;3.10;99.90;;;;;;4920120;29;20043;-84
2023/01/03 02:14:28;;;;;;;12.63;9.65;;;3.10;99.90;;;;;;4899281;29;20051;-84
2023/01/03 02:17:13;;;;;;;15.57;10.80;;;3.10;99.90;;;;;;4908346;29;20044;-84
2023/01/03 02:19:41;;;;;;;15.45;10.15;;;3.20;99.90;;;;;;4938016;28;20068;-84
2023/01/03 02:22:12;;;;;;;17.77;10.88;;;3.10;99.90;;;;;;4906967;29;21774;-84
2023/01/03 02:24:47;;;;;;;21.15;10.30;;;3.10;99.90;;;;;;4921728;29;20409;-84
2023/01/03 02:27:39;;;;;;;26.90;11.45;;;3.10;99.90;;;;;;4906227;29;20044;-84
2023/01/03 02:30:29;;;;;;;20.80;11.15;;;3.00;99.90;;;;;;4921272;29;20127;-84
2023/01/03 02:33:24;;;;;;;20.55;12.25;;;3.10;99.90;;;;;;4904722;29;20044;-84
2023/01/03 02:35:58;;;;;;;18.00;11.75;;;3.00;99.90;;;;;;4918363;29;20043;-84
2023/01/03 02:38:36;;;;;;;18.35;11.80;;;3.10;99.90;;;;;;4916485;29;20048;-84
2023/01/03 02:41:21;;;;;;;20.30;11.52;;;3.50;99.90;;;;;;4914433;29;22126;-84
2023/01/03 02:43:47;;;;;;;18.50;12.38;;;3.60;99.90;;;;;;4900304;29;20054;-84
2023/01/03 02:46:35;;;;;;;24.55;13.43;;;3.10;99.90;;;;;;4914160;29;20040;-84
2023/01/03 02:49:14;;;;;;;23.70;13.57;;;3.10;99.90;;;;;;4923269;29;20455;-85
2023/01/03 02:51:44;;;;;;;23.63;15.23;;;3.20;99.90;;;;;;4921829;29;21752;-84
2023/01/03 02:54:16;;;;;;;27.75;15.63;;;3.20;99.90;;;;;;4922394;29;20044;-85
2023/01/03 02:56:54;;;;;;;24.13;14.88;;;3.30;99.90;;;;;;4904501;29;20056;-85
2023/01/03 02:59:31;;;;;;;25.80;15.55;;;3.30;99.90;;;;;;4907905;29;20044;-84
2023/01/03 03:01:59;;;;;;;30.58;16.25;;;3.20;99.90;;;;;;4917540;29;20039;-85
2023/01/03 03:04:26;;;;;;;30.88;17.20;;;3.30;99.90;;;;;;4910230;29;20118;-85
2023/01/03 03:07:02;;;;;;;25.00;15.75;;;3.30;99.90;;;;;;4904912;29;20104;-85
2023/01/03 03:09:29;;;;;;;34.90;18.10;;;3.30;99.90;;;;;;4902437;29;20409;-85
2023/01/03 03:14:49;;;;;;;25.02;16.85;;;3.20;99.90;;;;;;4924156;29;20458;-85
2023/01/03 03:17:26;;;;;;;26.42;16.92;;;3.20;99.90;;;;;;4925320;29;20079;-85
2023/01/03 03:25:49;;;;;;;30.25;16.50;;;3.20;99.90;;;;;;4917285;29;20051;-85
2023/01/03 03:28:35;;;;;;;35.20;17.95;;;3.20;99.90;;;;;;4918234;29;20047;-84
2023/01/03 03:31:28;;;;;;;33.63;18.80;;;3.10;99.90;;;;;;4920338;29;20079;-85
2023/01/03 03:34:04;;;;;;;33.45;18.77;;;3.20;99.90;;;;;;4913492;29;20635;-85
2023/01/03 03:37:06;;;;;;;32.53;19.88;;;3.20;99.90;;;;;;4907773;29;20043;-84
2023/01/03 03:45:58;;;;;;;30.20;18.60;;;3.20;99.90;;;;;;4920754;29;20051;-84
2023/01/03 03:49:36;;;;;;;34.70;19.83;;;3.20;99.90;;;;;;4907136;29;20047;-85
2023/01/03 03:51:26;;;;;;;37.45;21.45;;;3.20;99.90;;;;;;4918134;29;20075;-84
2023/01/03 03:53:53;;;;;;;32.65;21.00;;;3.20;99.90;;;;;;4911689;29;20051;-85
2023/01/03 03:56:23;;;;;;;38.70;22.58;;;3.20;99.90;;;;;;4913976;29;20047;-85
2023/01/03 03:58:56;;;;;;;39.08;22.25;;;3.20;99.90;;;;;;4907967;29;20558;-85
2023/01/03 04:01:24;;;;;;;35.60;22.23;;;3.20;99.90;;;;;;4907346;29;20043;-84
2023/01/03 04:03:54;;;;;;;34.10;22.33;;;3.20;99.90;;;;;;4903966;29;20475;-85
2023/01/03 04:06:25;;;;;;;40.03;22.08;;;3.30;99.90;;;;;;4907996;29;20052;-85
2023/01/03 04:08:51;;;;;;;30.80;20.52;;;3.30;99.90;;;;;;4898736;29;20059;-85
2023/01/03 04:11:17;;;;;;;41.78;23.20;;;3.40;99.90;;;;;;4904096;29;20511;-85
2023/01/03 04:13:42;;;;;;;34.33;19.80;;;3.30;99.90;;;;;;4907097;29;20086;-85
2023/01/03 04:16:08;;;;;;;32.35;20.58;;;3.30;99.90;;;;;;4909334;29;20447;-84
2023/01/03 04:18:34;;;;;;;30.75;21.58;;;3.30;99.90;;;;;;4934307;29;20047;-84
2023/01/03 04:20:59;;;;;;;38.33;22.35;;;3.30;99.90;;;;;;4906833;29;20152;-84
2023/01/03 04:23:25;;;;;;;36.63;22.98;;;3.20;99.90;;;;;;4908359;29;20446;-84
2023/01/03 04:25:51;;;;;;;37.67;22.95;;;3.20;99.90;;;;;;4907849;29;20036;-85
2023/01/03 04:28:17;;;;;;;37.10;23.00;;;3.20;99.90;;;;;;4906460;29;20043;-85
2023/01/03 04:30:43;;;;;;;37.85;22.60;;;3.30;99.90;;;;;;4906481;29;20035;-85
2023/01/03 04:33:09;;;;;;;34.15;23.00;;;3.30;99.90;;;;;;4937302;28;20182;-84
2023/01/03 04:35:35;;;;;;;34.03;22.10;;;3.30;99.90;;;;;;4905660;29;20040;-84
2023/01/03 04:38:00;;;;;;;32.47;21.10;;;3.30;99.90;;;;;;4920231;29;20091;-85
2023/01/03 04:40:26;;;;;;;34.15;21.45;;;3.30;99.90;;;;;;4909753;29;20047;-85
2023/01/03 04:45:37;;;;;;;32.15;21.58;;;3.40;99.90;;;;;;4916458;29;20178;-85
2023/01/03 04:48:03;;;;;;;33.70;20.65;;;3.30;99.90;;;;;;4918330;29;20081;-84
2023/01/03 04:50:29;;;;;;;30.27;21.02;;;3.40;99.90;;;;;;4917063;29;20039;-85
2023/01/03 04:52:55;;;;;;;30.58;20.05;;;3.40;99.90;;;;;;4903564;29;20091;-84
2023/01/03 04:55:21;;;;;;;35.78;19.90;;;3.50;99.90;;;;;;4907960;29;20044;-84
2023/01/03 04:57:47;;;;;;;27.40;19.00;;;3.50;99.90;;;;;;4908510;29;20406;-84
2023/01/03 05:00:13;;;;;;;31.63;20.13;;;3.50;99.90;;;;;;4899279;29;20040;-85
2023/01/03 05:02:39;;;;;;;26.98;19.50;;;3.50;99.90;;;;;;4916888;29;20550;-84
2023/01/03 05:05:05;;;;;;;31.77;19.60;;;3.50;99.90;;;;;;4912292;29;20048;-85
2023/01/03 05:07:31;;;;;;;31.00;20.75;;;3.60;99.90;;;;;;4892693;29;20594;-85
2023/01/03 05:09:56;;;;;;;31.13;21.35;;;3.50;99.90;;;;;;4904553;29;20119;-85
2023/01/03 05:12:22;;;;;;;30.63;20.83;;;3.60;99.90;;;;;;4899519;29;20075;-85
2023/01/03 05:14:47;;;;;;;31.52;20.58;;;3.60;99.90;;;;;;4903294;29;20040;-84
2023/01/03 05:17:13;;;;;;;30.17;19.48;;;3.60;99.90;;;;;;4904387;29;20070;-85
2023/01/03 05:25:48;;;;;;;31.63;20.70;;;3.50;99.90;;;;;;4905365;29;20060;-84
2023/01/03 05:27:55;;;;;;;29.80;20.73;;;3.50;99.90;;;;;;4936300;28;20142;-84
2023/01/03 05:30:22;;;;;;;32.17;20.75;;;3.50;99.90;;;;;;4916572;29;20058;-85
2023/01/03 05:32:47;;;;;;;32.60;21.13;;;3.40;99.90;;;;;;4905529;29;20588;-84
2023/01/03 05:35:13;;;;;;;28.90;19.50;;;3.50;99.90;;;;;;4897828;29;20036;-84
2023/01/03 05:37:39;;;;;;;27.60;18.08;;;3.40;99.90;;;;;;4914632;29;20508;-84
2023/01/03 05:40:05;;;;;;;31.40;18.70;;;3.50;99.90;;;;;;4900073;29;20036;-84
2023/01/03 05:42:30;;;;;;;27.70;19.60;;;3.50;99.90;;;;;;4918859;29;20051;-84
2023/01/03 05:44:56;;;;;;;30.17;19.92;;;3.40;99.90;;;;;;4920932;29;20040;-84
2023/01/03 05:47:21;;;;;;;30.85;20.10;;;3.30;99.90;;;;;;4916344;29;20087;-84
2023/01/03 05:49:47;;;;;;;28.30;19.48;;;3.40;99.90;;;;;;4916925;29;20079;-85
2023/01/03 05:52:13;;;;;;;27.83;18.33;;;3.30;99.90;;;;;;4903189;29;20083;-84
2023/01/03 05:54:38;;;;;;;24.63;18.98;;;3.30;99.90;;;;;;4905430;29;20050;-86
2023/01/03 05:57:05;;;;;;;28.05;18.05;;;3.30;99.90;;;;;;4917900;29;20040;-86
2023/01/03 06:03:05;;;;;;;24.23;18.42;;;3.30;99.90;;;;;;4914115;29;20098;-86
2023/01/03 06:05:31;;;;;;;23.95;16.48;;;3.50;99.90;;;;;;4907682;29;20063;-85
2023/01/03 06:08:02;;;;;;;25.40;17.20;;;3.20;99.90;;;;;;4904689;29;20039;-86
2023/01/03 06:11:06;;;;;;;31.08;18.88;;;3.20;99.90;;;;;;4898395;29;20048;-86
2023/01/03 06:14:07;;;;;;;25.17;17.80;;;3.30;99.90;;;;;;4898273;29;20189;-86
2023/01/03 06:19:39;;;;;;;26.50;18.35;;;3.00;99.90;;;;;;4914877;29;20054;-86
2023/01/03 06:22:05;;;;;;;28.80;17.95;;;2.50;99.90;;;;;;4909512;29;20055;-84
2023/01/03 06:24:30;;;;;;;29.20;17.75;;;2.90;99.90;;;;;;4903869;29;20520;-84
2023/01/03 06:26:56;;;;;;;24.77;18.42;;;2.80;99.90;;;;;;4917739;29;20071;-84
2023/01/03 06:29:22;;;;;;;29.05;19.50;;;2.80;99.90;;;;;;4914263;29;20040;-85
2023/01/03 06:31:47;;;;;;;26.88;18.00;;;2.20;99.90;;;;;;4885991;29;20139;-84
2023/01/03 06:34:13;;;;;;;26.98;18.45;;;2.70;99.90;;;;;;4911508;29;21398;-86
2023/01/03 06:40:09;;;;;;;27.50;18.45;;;2.60;99.90;;;;;;4932634;28;20082;-87
2023/01/03 06:42:38;;;;;;;26.50;18.02;;;2.60;99.90;;;;;;4896759;29;20047;-86
2023/01/03 06:54:51;;;;;;;28.50;19.02;;;2.50;99.90;;;;;;4916815;29;20075;-86
2023/01/03 06:57:22;;;;;;;27.85;19.35;;;3.00;99.90;;;;;;4913132;29;20137;-86
2023/01/03 07:00:07;;;;;;;28.77;18.85;;;2.50;99.90;;;;;;4867067;29;20051;-86
2023/01/03 07:02:33;;;;;;;27.95;19.67;;;2.50;99.90;;;;;;4908480;29;20087;-87
2023/01/03 07:04:58;;;;;;;29.10;20.13;;;2.40;99.90;;;;;;4905984;29;20079;-85
2023/01/03 07:11:53;;;;;;;29.45;21.80;;;2.30;99.90;;;;;;4863055;29;20707;-87
2023/01/03 07:14:18;;;;;;;29.85;20.50;;;2.30;99.90;;;;;;4826489;29;22200;-83
2023/01/03 07:16:47;;;;;;;29.10;21.80;;;2.30;99.90;;;;;;4908398;29;20051;-85
2023/01/03 07:19:18;;;;;;;32.17;22.35;;;2.30;99.90;;;;;;4917492;29;20068;-86
2023/01/03 07:21:44;;;;;;;29.63;21.38;;;2.30;99.90;;;;;;4932052;28;20039;-85
2023/01/03 07:24:13;;;;;;;36.70;23.40;;;2.30;99.90;;;;;;4924436;29;20098;-85
2023/01/03 07:26:39;;;;;;;34.83;24.40;;;2.20;99.90;;;;;;4905684;29;20043;-85
2023/01/03 07:29:07;;;;;;;34.40;23.75;;;2.30;99.90;;;;;;4923449;29;20074;-85
2023/01/03 07:31:34;;;;;;;33.22;25.00;;;2.90;99.90;;;;;;4902798;29;20140;-86
2023/01/03 07:34:00;;;;;;;36.50;24.45;;;2.30;99.90;;;;;;4911805;29;20153;-85
2023/01/03 07:36:29;;;;;;;31.70;23.10;;;2.30;99.90;;;;;;4907537;29;20042;-86
2023/01/03 07:38:56;;;;;;;32.00;24.08;;;2.30;99.90;;;;;;4923020;29;20048;-85
2023/01/03 07:43:35;;;;;;;33.45;24.10;;;2.30;99.90;;;;;;4911053;29;20043;-85
2023/01/03 07:44:09;;;;;;;57.95;23.30;;;2.30;99.90;;;;;;4916134;29;20055;-85
2023/01/03 07:46:49;;;;;;;54.70;23.27;;;2.20;99.90;;;;;;4904090;29;20048;-85
2023/01/03 07:49:18;;;;;;;111.80;23.80;;;2.20;99.90;;;;;;4911713;29;20062;-85
2023/01/03 07:51:43;;;;;;;107.28;22.67;;;2.10;99.90;;;;;;4924037;29;20158;-85
2023/01/03 07:54:09;;;;;;;137.68;23.52;;;2.10;99.90;;;;;;4908130;29;20185;-86
2023/01/03 07:57:15;;;;;;;78.70;23.67;;;2.10;99.90;;;;;;4909869;29;20529;-86
2023/01/03 07:59:41;;;;;;;111.63;23.42;;;2.00;99.90;;;;;;4906226;29;20107;-85
2023/01/03 08:02:07;;;;;;;86.85;20.88;;;2.00;99.90;;;;;;4922839;29;20039;-85
2023/01/03 08:04:33;;;;;;;80.07;21.38;;;2.00;99.90;;;;;;4900721;29;20492;-86
2023/01/03 08:06:58;;;;;;;89.10;22.67;;;2.00;99.90;;;;;;4906480;29;20087;-86
2023/01/03 08:15:16;;;;;;;97.63;22.10;;;1.90;99.90;;;;;;4940579;28;20142;-85
2023/01/03 08:17:42;;;;;;;122.30;22.58;;;1.90;99.90;;;;;;4906000;29;20753;-85
2023/01/03 08:20:08;;;;;;;149.20;24.80;;;1.90;99.90;;;;;;4908661;29;20039;-85
2023/01/03 08:22:34;;;;;;;169.63;26.45;;;1.90;99.90;;;;;;4909773;29;20070;-85
2023/01/03 08:25:39;;;;;;;164.18;26.83;;;2.00;99.90;;;;;;4908033;29;20032;-88
2023/01/03 08:32:31;;;;;;;221.98;28.17;;;2.20;99.90;;;;;;4884106;29;20040;-88
2023/01/03 08:42:50;;;;;;;265.15;29.70;;;2.40;99.90;;;;;;4879099;29;20035;-85
2023/01/03 08:45:17;;;;;;;288.40;36.55;;;2.50;99.90;;;;;;4867528;29;20051;-88
2023/01/03 08:48:08;;;;;;;278.92;34.20;;;2.60;99.90;;;;;;4856520;29;20044;-87
2023/01/03 08:50:34;;;;;;;271.85;38.08;;;2.60;99.90;;;;;;4852420;29;20115;-84
2023/01/03 08:53:00;;;;;;;243.02;36.10;;;2.70;99.90;;;;;;4891506;28;20114;-87
2023/01/03 08:55:29;;;;;;;267.13;35.80;;;2.80;99.90;;;;;;4903027;29;20047;-86
2023/01/03 08:58:19;;;;;;;254.25;37.33;;;2.80;99.90;;;;;;4919914;29;20097;-88
2023/01/03 09:01:14;;;;;;;291.92;39.67;;;2.90;99.90;;;;;;4879912;29;20177;-88
2023/01/03 09:03:47;;;;;;;337.13;45.60;;;3.00;99.90;;;;;;4923393;29;20048;-88
2023/01/03 09:06:13;;;;;;;185.38;36.30;;;3.10;99.90;;;;;;4914033;29;20569;-87
2023/01/03 09:08:38;;;;;;;267.13;44.67;;;3.10;99.90;;;;;;4928362;29;20116;-86
2023/01/03 09:11:05;;;;;;;258.42;46.70;;;3.20;99.90;;;;;;4902320;29;20050;-86
2023/01/03 09:13:31;;;;;;;277.58;48.15;;;2.70;99.90;;;;;;4917812;29;20044;-86
2023/01/03 09:16:01;;;;;;;118.07;37.47;;;3.40;99.90;;;;;;4895793;29;23373;-86
2023/01/03 09:18:28;;;;;;;252.07;46.17;;;3.40;99.90;;;;;;4928688;28;20075;-85
2023/01/03 09:20:54;;;;;;;164.23;41.67;;;3.50;99.90;;;;;;4899704;29;20146;-88
2023/01/03 09:23:35;;;;;;;166.20;44.28;;;3.60;99.90;;;;;;4899878;29;20035;-90
2023/01/03 09:30:00;;;;;;;165.55;47.25;;;3.80;99.90;;;;;;4897925;29;20050;-86
2023/01/03 09:32:26;;;;;;;148.55;46.33;;;3.90;99.90;;;;;;4869417;29;20491;-83
2023/01/03 09:35:45;;;;;;;123.13;45.78;;;4.00;99.90;;;;;;4876700;29;20653;-88
2023/01/03 10:03:44;;;;;;;92.57;43.42;;;4.60;99.90;;;;;;4935698;29;20062;-87
2023/01/03 10:06:49;;;;;;;108.97;47.05;;;4.60;99.90;;;;;;4931030;29;20946;-87
2023/01/03 10:09:23;;;;;;;92.10;44.92;;;4.60;99.90;;;;;;4915058;29;20067;-88
2023/01/03 10:12:04;;;;;;;105.43;48.22;;;4.60;99.90;;;;;;4926662;29;20047;-86
2023/01/03 10:14:58;;;;;;;92.75;45.28;;;5.70;99.90;;;;;;4907468;29;20052;-83
2023/01/03 10:18:07;;;;;;;97.75;43.88;;;4.80;99.90;;;;;;4942213;28;20101;-85
2023/01/03 10:20:47;;;;;;;95.25;44.67;;;4.80;99.90;;;;;;4926434;29;20040;-84
2023/01/03 10:23:14;;;;;;;112.22;47.33;;;4.90;99.90;;;;;;4910091;29;20050;-84
2023/01/03 10:25:42;;;;;;;103.03;47.08;;;5.00;99.90;;;;;;4912721;29;20043;-86
2023/01/03 10:28:17;;;;;;;113.85;48.08;;;5.10;99.90;;;;;;4926283;29;20039;-84
2023/01/03 10:30:57;;;;;;;92.35;44.85;;;5.10;99.90;;;;;;4920769;29;20134;-84
2023/01/03 10:33:44;;;;;;;92.20;47.15;;;5.10;99.90;;;;;;4911009;29;20051;-85
2023/01/03 10:36:10;;;;;;;95.95;45.58;;;5.20;99.90;;;;;;4953261;28;20039;-85
2023/01/03 10:38:37;;;;;;;90.60;44.47;;;5.20;99.90;;;;;;4923782;29;20512;-87
2023/01/03 10:41:03;;;;;;;79.35;42.20;;;5.20;99.90;;;;;;4919240;29;20099;-83
2023/01/03 10:43:39;;;;;;;75.13;42.15;;;5.30;99.90;;;;;;4910739;29;20086;-84
2023/01/03 10:46:18;;;;;;;82.47;43.20;;;5.30;99.90;;;;;;4919355;29;20040;-83
2023/01/03 10:48:45;;;;;;;83.60;45.00;;;5.40;99.90;;;;;;4916725;29;20051;-84
2023/01/03 10:51:41;;;;;;;83.80;44.92;;;5.50;99.90;;;;;;4908729;29;20071;-87
2023/01/03 10:54:36;;;;;;;74.85;41.25;;;5.50;99.90;;;;;;4907100;29;20441;-87
2023/01/03 10:57:05;;;;;;;74.90;40.22;;;5.70;99.90;;;;;;4927617;29;20055;-87
2023/01/03 10:59:31;;;;;;;66.32;38.55;;;5.70;99.90;;;;;;4916223;29;20427;-85
2023/01/03 11:02:12;;;;;;;60.65;35.70;;;6.10;99.90;;;;;;4922523;29;20083;-88
2023/01/03 11:05:15;;;;;;;61.42;34.75;;;5.80;99.90;;;;;;4929487;28;20067;-87
2023/01/03 11:07:59;;;;;;;55.58;34.80;;;5.90;99.90;;;;;;4920318;29;20560;-89
2023/01/03 11:11:37;;;;;;;51.88;33.05;;;5.90;99.90;;;;;;4923514;29;21043;-89
2023/01/03 11:14:25;;;;;;;52.58;33.88;;;6.00;99.90;;;;;;4893877;29;20139;-86
2023/01/03 11:17:11;;;;;;;52.65;32.08;;;6.00;99.90;;;;;;4862475;29;20787;-87
2023/01/03 11:19:37;;;;;;;45.10;27.63;;;7.40;99.90;;;;;;4917151;29;20555;-87
2023/01/03 11:22:04;;;;;;;48.35;30.20;;;6.10;99.90;;;;;;4915624;29;20040;-86
2023/01/03 11:24:59;;;;;;;42.80;28.00;;;6.10;99.90;;;;;;4914231;29;20420;-89
2023/01/03 11:27:35;;;;;;;46.08;29.00;;;6.10;99.90;;;;;;4914715;29;20492;-84
2023/01/03 11:30:17;;;;;;;40.97;28.20;;;6.10;99.90;;;;;;4935938;29;20418;-87
2023/01/03 11:32:59;;;;;;;46.83;29.17;;;6.20;99.90;;;;;;4955253;28;20051;-84
2023/01/03 11:36:02;;;;;;;51.20;28.23;;;6.10;99.90;;;;;;4921535;29;20126;-85
2023/01/03 11:38:33;;;;;;;41.13;26.77;;;6.20;99.90;;;;;;4916453;29;20487;-86
2023/01/03 11:41:22;;;;;;;34.78;26.05;;;6.10;99.90;;;;;;4953077;28;20070;-87
2023/01/03 11:44:02;;;;;;;38.13;25.73;;;6.10;99.90;;;;;;4935789;29;20051;-85
2023/01/03 11:46:54;;;;;;;43.22;24.15;;;6.20;99.90;;;;;;4920394;29;20043;-83
2023/01/03 11:49:49;;;;;;;38.05;25.00;;;6.20;99.90;;;;;;4923105;29;20059;-83
2023/01/03 11:52:38;;;;;;;36.33;23.73;;;6.20;99.90;;;;;;4917185;29;20035;-83
2023/01/03 11:55:18;;;;;;;40.70;23.98;;;5.80;99.90;;;;;;4917981;29;20035;-84
2023/01/03 11:58:09;;;;;;;36.80;23.02;;;6.20;99.90;;;;;;4920938;29;20043;-88
2023/01/03 12:01:09;;;;;;;35.30;22.98;;;6.20;99.90;;;;;;4935475;29;20409;-85
2023/01/03 12:03:53;;;;;;;35.67;22.05;;;6.20;99.90;;;;;;4904595;29;20060;-84
2023/01/03 12:06:24;;;;;;;29.20;21.52;;;6.30;99.90;;;;;;4925261;29;20054;-84
2023/01/03 12:09:03;;;;;;;30.48;22.05;;;6.20;99.90;;;;;;4924844;29;20078;-84
2023/01/03 12:11:59;;;;;;;35.53;23.58;;;6.30;99.90;;;;;;4927009;29;20043;-84
2023/01/03 12:14:42;;;;;;;33.35;22.88;;;6.30;99.90;;;;;;4921765;29;20075;-87
2023/01/03 12:17:21;;;;;;;34.58;24.02;;;6.30;99.90;;;;;;4930073;29;20070;-82
2023/01/03 12:20:13;;;;;;;33.85;20.98;;;6.30;99.90;;;;;;4934874;29;20073;-84
2023/01/03 12:23:21;;;;;;;31.35;21.77;;;6.30;99.90;;;;;;4952519;28;20124;-85
2023/01/03 12:25:51;;;;;;;38.35;21.45;;;6.40;99.90;;;;;;4944214;28;20043;-82
2023/01/03 12:28:48;;;;;;;38.25;22.20;;;6.40;99.90;;;;;;4928527;29;20043;-83
2023/01/03 12:31:44;;;;;;;34.58;22.20;;;6.40;99.90;;;;;;4923300;29;20075;-85
2023/01/03 12:34:29;;;;;;;40.47;22.17;;;6.30;99.90;;;;;;4936419;29;20035;-83
2023/01/03 12:37:22;;;;;;;34.25;21.63;;;6.40;99.90;;;;;;4912632;29;20044;-86
2023/01/03 12:39:55;;;;;;;40.97;24.80;;;6.40;99.90;;;;;;4918345;29;20170;-85
2023/01/03 12:42:36;;;;;;;36.05;22.88;;;6.40;99.90;;;;;;4937280;29;20035;-86
2023/01/03 12:45:23;;;;;;;36.25;21.75;;;6.50;99.90;;;;;;4940461;29;20088;-86
2023/01/03 12:48:04;;;;;;;31.38;20.52;;;6.50;99.90;;;;;;4920336;29;20466;-83
2023/01/03 12:50:34;;;;;;;36.70;23.08;;;6.50;99.90;;;;;;4943213;29;20078;-84
2023/01/03 12:53:22;;;;;;;38.20;22.08;;;6.00;99.90;;;;;;4921970;29;20047;-82
2023/01/03 12:56:13;;;;;;;38.10;21.60;;;6.50;99.90;;;;;;4919782;29;20047;-82
2023/01/03 12:58:59;;;;;;;37.78;21.05;;;6.50;99.90;;;;;;4929025;29;20054;-84
2023/01/03 13:01:39;;;;;;;38.80;21.83;;;6.60;99.90;;;;;;4925440;29;20047;-84
2023/01/03 13:04:18;;;;;;;40.15;20.33;;;6.60;99.90;;;;;;4934945;29;20039;-87
2023/01/03 13:07:00;;;;;;;38.33;20.98;;;6.60;99.90;;;;;;4925263;29;20190;-83
2023/01/03 13:09:35;;;;;;;31.35;20.73;;;6.60;99.90;;;;;;4921608;29;20036;-84
2023/01/03 13:12:16;;;;;;;31.52;20.52;;;6.70;99.90;;;;;;4923456;29;20042;-85
2023/01/03 13:14:55;;;;;;;33.10;19.30;;;6.70;99.90;;;;;;4925060;29;20593;-83
2023/01/03 13:17:24;;;;;;;31.48;18.58;;;6.70;99.90;;;;;;4941035;29;20050;-86
2023/01/03 13:19:57;;;;;;;33.13;19.95;;;6.80;99.90;;;;;;4925023;29;20138;-84
2023/01/03 13:22:33;;;;;;;30.92;20.02;;;6.70;99.90;;;;;;4925092;29;20039;-87
2023/01/03 13:25:34;;;;;;;37.42;21.00;;;6.80;99.90;;;;;;4920785;29;20036;-84
2023/01/03 13:28:04;;;;;;;37.67;20.33;;;6.80;99.90;;;;;;4922450;28;20048;-83
2023/01/03 13:30:32;;;;;;;34.15;20.75;;;6.90;99.90;;;;;;4940400;29;20039;-84
2023/01/03 13:33:08;;;;;;;37.20;22.92;;;6.80;99.90;;;;;;4926430;29;20043;-88
2023/01/03 13:35:50;;;;;;;32.38;19.90;;;6.90;99.90;;;;;;4918841;29;20055;-84
2023/01/03 13:38:30;;;;;;;33.13;21.13;;;6.90;99.90;;;;;;4951757;28;20084;-82
2023/01/03 13:41:01;;;;;;;27.23;19.10;;;6.90;99.90;;;;;;4924841;29;20046;-86
2023/01/03 13:43:35;;;;;;;31.90;18.90;;;6.90;99.90;;;;;;4935320;29;20494;-83
2023/01/03 13:46:26;;;;;;;32.28;18.27;;;7.00;99.90;;;;;;4924160;29;20043;-83
2023/01/03 13:48:56;;;;;;;29.17;18.45;;;7.00;99.90;;;;;;4919448;29;20090;-84
2023/01/03 13:51:21;;;;;;;26.83;18.38;;;6.90;99.90;;;;;;4935358;29;20043;-83
2023/01/03 13:54:04;;;;;;;28.55;18.73;;;7.00;99.90;;;;;;4922569;29;20042;-84
2023/01/03 13:56:41;;;;;;;28.25;18.75;;;6.30;99.90;;;;;;4936943;29;20036;-86
2023/01/03 13:59:13;;;;;;;29.75;17.85;;;7.00;99.90;;;;;;4935796;29;20040;-85
2023/01/03 14:02:02;;;;;;;29.27;17.73;;;7.00;99.90;;;;;;4931219;29;20044;-83
2023/01/03 14:04:49;;;;;;;26.77;17.48;;;7.10;99.90;;;;;;4940425;29;20058;-83
2023/01/03 14:07:46;;;;;;;23.42;16.90;;;7.10;99.90;;;;;;4931434;29;20094;-83
2023/01/03 14:10:15;;;;;;;;;;;7.10;99.90;;;;;;4924925;29;20051;-84
2023/01/03 14:12:55;;;;;;;21.83;15.38;;;7.10;99.90;;;;;;4935263;29;19926;-82
2023/01/03 14:15:24;;;;;;;25.00;15.85;;;7.10;99.90;;;;;;4922671;29;20051;-85
2023/01/03 14:18:11;;;;;;;25.63;16.85;;;7.20;99.90;;;;;;4940946;29;20440;-83
2023/01/03 14:20:41;;;;;;;24.40;17.15;;;7.20;99.90;;;;;;4916723;29;20040;-84
2023/01/03 14:23:07;;;;;;;24.95;15.15;;;7.20;99.90;;;;;;4934750;29;20051;-83
2023/01/03 14:25:40;;;;;;;21.58;15.55;;;7.20;99.90;;;;;;4920872;29;20036;-83
2023/01/03 14:28:18;;;;;;;22.02;14.52;;;7.20;99.90;;;;;;4918150;29;20047;-83
2023/01/03 14:30:44;;;;;;;24.67;16.00;;;7.20;99.90;;;;;;4917852;29;20055;-83
2023/01/03 14:33:34;;;;;;;20.98;14.98;;;7.30;99.90;;;;;;4922565;29;20043;-83
2023/01/03 14:36:20;;;;;;;20.73;15.60;;;7.30;99.90;;;;;;4932613;29;20047;-83
2023/01/03 14:38:53;;;;;;;22.20;14.23;;;7.30;99.90;;;;;;4923816;29;20062;-86
2023/01/03 14:41:38;;;;;;;20.98;14.88;;;7.30;99.90;;;;;;4918394;29;20039;-84
2023/01/03 14:44:08;;;;;;;20.77;14.65;;;7.30;99.90;;;;;;4925312;29;20031;-84
2023/01/03 14:46:34;;;;;;;22.05;14.50;;;7.30;99.90;;;;;;4921624;29;20437;-83
2023/01/03 14:49:04;;;;;;;18.83;14.90;;;7.30;99.90;;;;;;4933144;29;20055;-85
2023/01/03 14:52:07;;;;;;;23.25;15.15;;;7.40;99.90;;;;;;4921961;29;20036;-87
2023/01/03 14:54:40;;;;;;;22.88;15.23;;;7.80;99.90;;;;;;4941289;29;20062;-84
2023/01/03 14:57:17;;;;;;;23.02;14.18;;;7.40;99.90;;;;;;4927612;29;20070;-84